Terminal Aerodrome Forecast
Issued by NWS Tuscon, AZ

Home | Current Version | Previous Version | Text Only | Print | Product List | Glossary On
Versions: 1 2 3 4 5 6 7 8 9 10 11 12
000
FTUS45 KTWC 012332
TAFDUG
TAF
KDUG 012332Z 0200/0224 25013G19KT P6SM BKN100
     FM020300 35008KT P6SM SCT100
     FM020900 07011KT P6SM SKC
     FM021400 12010KT P6SM FEW060
     FM022000 19010KT P6SM SCT070=

USA.gov is the U.S. government's official web portal to all federal, state and local government web resources and services.